createdAt,value
2023-05-06T00:01:03.891Z,14.70
2023-05-06T00:03:35.887Z,14.70
2023-05-06T00:06:09.144Z,14.60
2023-05-06T00:08:40.581Z,14.60
2023-05-06T00:11:12.632Z,14.60
2023-05-06T00:13:44.155Z,14.50
2023-05-06T00:16:15.976Z,14.50
2023-05-06T00:18:47.483Z,14.50
2023-05-06T00:21:19.072Z,14.60
2023-05-06T00:23:50.670Z,14.60
2023-05-06T00:26:22.158Z,14.60
2023-05-06T00:28:53.656Z,14.70
2023-05-06T00:31:25.397Z,14.70
2023-05-06T00:33:57.130Z,14.70
2023-05-06T00:36:28.903Z,14.60
2023-05-06T00:39:00.610Z,14.50
2023-05-06T00:41:33.982Z,14.50
2023-05-06T00:44:05.735Z,14.50
2023-05-06T00:46:37.582Z,14.40
2023-05-06T00:49:09.261Z,14.30
2023-05-06T00:51:40.910Z,14.30
2023-05-06T00:54:13.017Z,14.20
2023-05-06T00:56:44.938Z,14.20
2023-05-06T00:59:17.153Z,14.10
2023-05-06T01:01:48.760Z,14.00
2023-05-06T01:04:20.234Z,13.90
2023-05-06T01:06:57.122Z,13.90
2023-05-06T01:09:33.826Z,13.90
2023-05-06T01:12:08.860Z,13.90
2023-05-06T01:14:44.679Z,13.90
2023-05-06T01:17:19.368Z,13.80
2023-05-06T01:19:54.024Z,13.80
2023-05-06T01:22:26.028Z,13.70
2023-05-06T01:24:57.567Z,13.70
2023-05-06T01:27:30.580Z,13.70
2023-05-06T01:30:03.814Z,13.60
2023-05-06T01:32:43.887Z,13.60
2023-05-06T01:35:20.182Z,13.60
2023-05-06T01:37:56.167Z,13.60
2023-05-06T01:40:30.280Z,13.50
2023-05-06T01:43:03.158Z,13.60
2023-05-06T01:45:37.290Z,13.60
2023-05-06T01:48:09.654Z,13.70
2023-05-06T01:50:41.529Z,13.70
2023-05-06T01:53:14.079Z,13.70
2023-05-06T01:55:45.624Z,13.70
2023-05-06T01:58:17.046Z,13.60
2023-05-06T02:00:48.568Z,13.60
2023-05-06T02:03:20.374Z,13.60
2023-05-06T02:05:52.752Z,13.60
2023-05-06T02:08:24.643Z,13.70
2023-05-06T02:10:56.348Z,13.70
2023-05-06T02:13:27.829Z,13.70
2023-05-06T02:15:59.344Z,13.80
2023-05-06T02:18:30.036Z,13.80
2023-05-06T02:21:01.619Z,13.80
2023-05-06T02:23:33.029Z,13.80
2023-05-06T02:26:04.594Z,13.80
2023-05-06T02:28:36.147Z,13.80
2023-05-06T02:31:07.841Z,13.80
2023-05-06T02:33:39.491Z,13.70
2023-05-06T02:36:11.402Z,13.80
2023-05-06T02:38:43.136Z,13.70
2023-05-06T02:41:14.909Z,13.70
2023-05-06T02:43:46.621Z,13.70
2023-05-06T02:46:18.431Z,13.60
2023-05-06T02:48:50.118Z,13.60
2023-05-06T02:51:21.672Z,13.70
2023-05-06T02:53:53.187Z,13.70
2023-05-06T02:56:24.708Z,13.70
2023-05-06T02:58:56.182Z,13.70
2023-05-06T03:01:28.087Z,13.70
2023-05-06T03:03:59.775Z,13.70
2023-05-06T03:06:31.619Z,13.70
2023-05-06T03:09:03.374Z,13.70
2023-05-06T03:11:35.006Z,13.70
2023-05-06T03:14:06.402Z,13.70
2023-05-06T03:16:38.058Z,13.70
2023-05-06T03:19:09.665Z,13.70
2023-05-06T03:21:41.309Z,13.70
2023-05-06T03:24:12.871Z,13.70
2023-05-06T03:26:44.356Z,13.80
2023-05-06T03:29:16.079Z,13.80
2023-05-06T03:31:49.207Z,13.80
2023-05-06T03:34:20.806Z,13.80
2023-05-06T03:36:52.637Z,13.80
2023-05-06T03:39:24.661Z,13.80
2023-05-06T03:41:56.486Z,13.80
2023-05-06T03:44:28.026Z,13.80
2023-05-06T03:46:59.694Z,13.80
2023-05-06T03:49:31.114Z,13.70
2023-05-06T03:52:02.671Z,13.80
2023-05-06T03:54:34.393Z,13.70
2023-05-06T03:57:05.996Z,13.70
2023-05-06T03:59:37.391Z,13.80
2023-05-06T04:02:08.931Z,13.70
2023-05-06T04:04:40.518Z,13.80
2023-05-06T04:07:11.975Z,13.80
2023-05-06T04:09:43.509Z,13.80
2023-05-06T04:12:14.958Z,13.80
2023-05-06T04:14:46.430Z,13.70
2023-05-06T04:17:17.861Z,13.80
2023-05-06T04:19:49.540Z,13.70
2023-05-06T04:22:21.354Z,13.70
2023-05-06T04:24:52.814Z,13.70
2023-05-06T04:27:25.871Z,13.70
2023-05-06T04:29:57.451Z,13.70
2023-05-06T04:32:28.907Z,13.70
2023-05-06T04:35:00.428Z,13.70
2023-05-06T04:37:32.044Z,13.70
2023-05-06T04:40:05.786Z,13.80
2023-05-06T04:42:38.024Z,13.80
2023-05-06T04:45:12.260Z,13.80
2023-05-06T04:47:43.944Z,13.80
2023-05-06T04:50:15.855Z,13.70
2023-05-06T04:52:47.639Z,13.60
2023-05-06T04:55:20.202Z,13.50
2023-05-06T04:57:52.254Z,13.50
2023-05-06T05:00:25.834Z,13.40
2023-05-06T05:02:57.754Z,13.50
2023-05-06T05:05:30.701Z,13.50
2023-05-06T05:08:02.387Z,13.60
2023-05-06T05:10:34.155Z,13.60
2023-05-06T05:13:05.704Z,13.60
2023-05-06T05:15:38.474Z,13.50
2023-05-06T05:18:10.205Z,13.50
2023-05-06T05:20:41.744Z,13.40
2023-05-06T05:23:15.068Z,13.40
2023-05-06T05:25:46.847Z,13.40
2023-05-06T05:28:18.306Z,13.40
2023-05-06T05:30:49.812Z,13.50
2023-05-06T05:33:21.378Z,13.50
2023-05-06T05:35:53.440Z,13.50
2023-05-06T05:38:24.839Z,13.50
2023-05-06T05:40:56.391Z,13.60
2023-05-06T05:43:28.110Z,13.70
2023-05-06T05:45:59.623Z,14.90
2023-05-06T05:48:32.561Z,15.80
2023-05-06T05:51:04.585Z,17.00
2023-05-06T05:53:36.083Z,17.80
2023-05-06T05:56:08.553Z,18.50
2023-05-06T05:58:40.025Z,19.10
2023-05-06T06:01:11.657Z,18.50
2023-05-06T06:03:43.905Z,17.60
2023-05-06T06:06:15.268Z,17.10
2023-05-06T06:08:47.235Z,17.20
2023-05-06T06:11:18.979Z,17.00
2023-05-06T06:13:50.666Z,18.50
2023-05-06T06:16:22.288Z,19.20
2023-05-06T06:18:54.203Z,19.10
2023-05-06T06:21:25.695Z,18.80
2023-05-06T06:23:57.807Z,18.40
2023-05-06T06:26:29.382Z,18.20
2023-05-06T06:29:01.107Z,18.10
2023-05-06T06:31:33.999Z,17.90
2023-05-06T06:34:06.706Z,17.50
2023-05-06T06:36:40.063Z,17.20
2023-05-06T06:39:11.580Z,17.00
2023-05-06T06:41:43.452Z,16.80
2023-05-06T06:44:15.903Z,16.50
2023-05-06T06:46:47.482Z,16.30
2023-05-06T06:49:18.931Z,16.10
2023-05-06T06:51:51.960Z,15.90
2023-05-06T06:54:23.448Z,15.80
2023-05-06T06:56:58.093Z,15.60
2023-05-06T06:59:29.838Z,15.60
2023-05-06T07:02:01.496Z,15.60
2023-05-06T07:04:33.077Z,15.60
2023-05-06T07:07:04.570Z,15.60
2023-05-06T07:09:37.014Z,15.70
2023-05-06T07:12:09.445Z,15.90
2023-05-06T07:14:41.445Z,16.00
2023-05-06T07:17:13.134Z,16.00
2023-05-06T07:19:44.888Z,16.10
2023-05-06T07:22:17.770Z,16.10
2023-05-06T07:24:49.287Z,16.10
2023-05-06T07:27:20.828Z,16.30
2023-05-06T07:29:52.401Z,16.40
2023-05-06T07:32:23.813Z,16.50
2023-05-06T07:34:55.356Z,16.50
2023-05-06T07:37:26.752Z,16.50
2023-05-06T07:39:59.568Z,16.40
2023-05-06T07:42:31.074Z,16.50
2023-05-06T07:45:02.519Z,16.50
2023-05-06T07:47:34.774Z,16.40
2023-05-06T07:50:07.359Z,16.50
2023-05-06T07:52:38.811Z,16.70
2023-05-06T07:55:11.980Z,16.80
2023-05-06T07:57:43.787Z,17.00
2023-05-06T08:00:16.587Z,17.30
2023-05-06T08:02:48.706Z,17.40
2023-05-06T08:05:20.662Z,17.60
2023-05-06T08:07:52.187Z,17.70
2023-05-06T08:10:24.112Z,17.90
2023-05-06T08:12:55.721Z,18.10
2023-05-06T08:15:27.223Z,18.10
2023-05-06T08:18:02.168Z,18.30
2023-05-06T08:20:31.807Z,18.30
2023-05-06T08:23:03.979Z,18.40
2023-05-06T08:25:35.403Z,18.60
2023-05-06T08:28:07.001Z,18.80
2023-05-06T08:30:38.578Z,18.90
2023-05-06T08:33:10.751Z,19.10
2023-05-06T08:35:42.182Z,19.30
2023-05-06T08:38:13.646Z,19.60
2023-05-06T08:40:46.170Z,19.70
2023-05-06T08:43:20.832Z,19.70
2023-05-06T08:45:52.849Z,19.70
2023-05-06T08:48:24.493Z,19.90
2023-05-06T08:50:58.333Z,19.90
2023-05-06T08:53:31.698Z,19.70
2023-05-06T08:56:06.359Z,19.70
2023-05-06T08:58:39.793Z,19.70
2023-05-06T09:01:11.440Z,19.50
2023-05-06T09:03:44.218Z,19.30
2023-05-06T09:06:15.752Z,19.20
2023-05-06T09:08:47.499Z,19.40
2023-05-06T09:11:26.302Z,19.50
2023-05-06T09:14:12.352Z,19.60
2023-05-06T09:19:23.840Z,19.90
2023-05-06T09:21:55.333Z,20.20
2023-05-06T09:24:27.014Z,20.20
2023-05-06T09:26:58.602Z,20.50
2023-05-06T09:29:30.106Z,20.10
2023-05-06T09:32:06.021Z,20.20
2023-05-06T09:34:39.250Z,20.30
2023-05-06T09:37:11.308Z,20.20
2023-05-06T09:39:42.849Z,20.40
2023-05-06T09:42:37.083Z,21.00
2023-05-06T09:45:11.275Z,21.30
2023-05-06T09:47:43.093Z,21.30
2023-05-06T09:50:16.486Z,21.30
2023-05-06T09:52:49.138Z,21.30
2023-05-06T09:55:21.472Z,21.20
2023-05-06T09:57:53.158Z,21.00
2023-05-06T10:00:29.050Z,21.10
2023-05-06T10:03:01.897Z,21.10
2023-05-06T10:05:34.713Z,21.00
2023-05-06T10:08:07.499Z,21.00
2023-05-06T10:10:41.197Z,20.90
2023-05-06T10:13:14.294Z,20.70
2023-05-06T10:15:48.662Z,20.90
2023-05-06T10:18:21.422Z,20.90
2023-05-06T10:20:55.463Z,20.80
2023-05-06T10:23:30.159Z,20.70
2023-05-06T10:26:06.404Z,20.70
2023-05-06T10:28:41.763Z,20.70
2023-05-06T10:31:14.391Z,20.70
2023-05-06T10:33:48.432Z,20.60
2023-05-06T10:36:23.276Z,20.80
2023-05-06T10:38:57.428Z,21.10
2023-05-06T10:41:30.983Z,21.20
2023-05-06T10:44:02.457Z,21.30
2023-05-06T10:46:35.807Z,21.60
2023-05-06T10:49:24.777Z,21.50
2023-05-06T10:52:14.379Z,21.60
2023-05-06T10:54:52.486Z,21.80
2023-05-06T10:57:27.215Z,21.70
2023-05-06T11:00:01.211Z,21.60
2023-05-06T11:02:32.793Z,21.80
2023-05-06T11:05:05.920Z,21.90
2023-05-06T11:07:37.987Z,21.70
2023-05-06T11:10:12.486Z,22.00
2023-05-06T11:12:49.777Z,22.30
2023-05-06T11:15:27.176Z,22.40
2023-05-06T11:18:00.072Z,22.30
2023-05-06T11:20:33.887Z,22.10
2023-05-06T11:23:05.714Z,21.90
2023-05-06T11:25:45.240Z,22.20
2023-05-06T11:28:17.281Z,22.40
2023-05-06T11:30:56.017Z,22.20
2023-05-06T11:33:30.670Z,22.10
2023-05-06T11:36:03.181Z,21.90
2023-05-06T11:38:44.351Z,22.10
2023-05-06T11:41:16.271Z,22.00
2023-05-06T11:43:49.901Z,21.90
2023-05-06T11:46:22.718Z,21.90
2023-05-06T11:48:54.173Z,22.00
2023-05-06T11:51:26.550Z,22.20
2023-05-06T11:54:08.030Z,22.40
2023-05-06T11:56:51.392Z,22.80
2023-05-06T11:59:33.281Z,23.20
2023-05-06T12:02:07.471Z,23.40
2023-05-06T12:04:43.304Z,23.30
2023-05-06T12:07:16.709Z,23.50
2023-05-06T12:09:50.870Z,23.70
2023-05-06T12:12:25.039Z,23.70
2023-05-06T12:14:56.513Z,23.80
2023-05-06T12:17:28.507Z,23.90
2023-05-06T12:20:00.312Z,23.80
2023-05-06T12:22:31.909Z,23.80
2023-05-06T12:25:14.869Z,23.80
2023-05-06T12:27:46.545Z,23.80
2023-05-06T12:30:19.631Z,23.50
2023-05-06T12:33:02.902Z,23.80
2023-05-06T12:35:34.587Z,24.00
2023-05-06T12:38:14.062Z,24.10
2023-05-06T12:40:46.303Z,24.00
2023-05-06T12:43:17.821Z,24.10
2023-05-06T12:46:05.121Z,24.10
2023-05-06T12:48:36.817Z,24.40
2023-05-06T12:51:21.558Z,24.50
2023-05-06T12:53:53.339Z,24.30
2023-05-06T12:56:24.990Z,24.20
2023-05-06T12:59:01.462Z,24.10
2023-05-06T13:01:33.100Z,24.10
2023-05-06T13:04:05.148Z,24.20
2023-05-06T13:06:36.619Z,24.30
2023-05-06T13:09:08.200Z,24.40
2023-05-06T13:11:39.761Z,24.30
2023-05-06T13:14:11.747Z,24.30
2023-05-06T13:16:44.298Z,24.30
2023-05-06T13:19:30.852Z,24.10
2023-05-06T13:21:49.199Z,24.10
2023-05-06T13:24:21.335Z,24.10
2023-05-06T13:26:53.147Z,24.10
2023-05-06T13:29:24.834Z,24.30
2023-05-06T13:31:56.699Z,24.40
2023-05-06T13:34:28.240Z,24.40
2023-05-06T13:37:00.323Z,24.70
2023-05-06T13:39:32.042Z,24.80
2023-05-06T13:42:05.433Z,24.80
2023-05-06T13:44:36.981Z,24.80
2023-05-06T13:47:08.577Z,24.80
2023-05-06T13:49:39.970Z,24.90
2023-05-06T13:52:11.461Z,25.00
2023-05-06T13:54:43.016Z,25.00
2023-05-06T13:57:14.507Z,25.00
2023-05-06T13:59:45.916Z,25.00
2023-05-06T14:02:18.176Z,25.10
2023-05-06T14:04:49.825Z,25.30
2023-05-06T14:07:21.278Z,25.30
2023-05-06T14:09:52.760Z,25.20
2023-05-06T14:12:24.709Z,25.20
2023-05-06T14:14:56.226Z,25.00
2023-05-06T14:17:27.776Z,25.10
2023-05-06T14:19:59.170Z,25.10
2023-05-06T14:22:30.914Z,25.10
2023-05-06T14:25:02.326Z,25.20
2023-05-06T14:27:33.806Z,25.10
2023-05-06T14:30:08.949Z,25.10
2023-05-06T14:32:39.762Z,25.30
2023-05-06T14:35:12.953Z,25.40
2023-05-06T14:37:44.519Z,25.60
2023-05-06T14:40:17.892Z,25.50
2023-05-06T14:42:51.961Z,25.40
2023-05-06T14:45:23.414Z,25.40
2023-05-06T14:47:54.955Z,25.50
2023-05-06T14:50:26.445Z,25.40
2023-05-06T14:52:58.104Z,25.60
2023-05-06T14:55:29.549Z,25.70
2023-05-06T14:58:01.033Z,25.90
2023-05-06T15:00:32.883Z,25.90
2023-05-06T15:03:04.759Z,26.10
2023-05-06T15:05:37.079Z,26.10
2023-05-06T15:08:09.895Z,26.00
2023-05-06T15:10:41.822Z,25.90
2023-05-06T15:13:13.346Z,25.90
2023-05-06T15:15:45.752Z,25.80
2023-05-06T15:18:17.244Z,25.70
2023-05-06T15:20:48.646Z,25.80
2023-05-06T15:23:20.468Z,25.80
2023-05-06T15:25:51.837Z,25.70
2023-05-06T15:28:24.532Z,25.60
2023-05-06T15:30:56.490Z,25.50
2023-05-06T15:33:28.048Z,25.50
2023-05-06T15:35:59.550Z,25.60
2023-05-06T15:38:34.153Z,25.60
2023-05-06T15:41:06.505Z,25.70
2023-05-06T15:43:38.896Z,25.70
2023-05-06T15:46:14.262Z,25.70
2023-05-06T15:49:42.590Z,25.80
2023-05-06T15:51:45.459Z,25.80
2023-05-06T15:54:18.652Z,25.60
2023-05-06T15:56:50.224Z,25.50
2023-05-06T15:59:21.738Z,25.50
2023-05-06T16:04:26.464Z,25.20
2023-05-06T16:06:58.227Z,25.10
2023-05-06T16:09:29.707Z,25.10
2023-05-06T16:12:01.386Z,25.10
2023-05-06T16:14:33.018Z,25.00
2023-05-06T16:17:05.002Z,24.90
2023-05-06T16:19:36.717Z,24.90
2023-05-06T16:22:08.244Z,24.90
2023-05-06T16:24:39.655Z,24.90
2023-05-06T16:27:11.225Z,24.80
2023-05-06T16:29:42.605Z,24.80
2023-05-06T16:32:14.144Z,24.70
2023-05-06T16:34:45.654Z,24.60
2023-05-06T16:37:17.720Z,24.60
2023-05-06T16:39:49.204Z,24.60
2023-05-06T16:42:20.966Z,24.60
2023-05-06T16:44:52.618Z,24.50
2023-05-06T16:47:24.416Z,24.50
2023-05-06T16:49:56.141Z,24.60
2023-05-06T16:52:30.152Z,24.50
2023-05-06T16:55:01.581Z,24.50
2023-05-06T16:57:33.180Z,24.50
2023-05-06T17:00:09.299Z,24.60
2023-05-06T17:02:42.082Z,24.50
2023-05-06T17:05:14.105Z,24.50
2023-05-06T17:07:45.900Z,24.60
2023-05-06T17:10:17.588Z,24.60
2023-05-06T17:12:49.232Z,24.60
2023-05-06T17:15:20.915Z,24.40
2023-05-06T17:17:53.142Z,24.30
2023-05-06T17:20:25.373Z,24.00
2023-05-06T17:22:56.888Z,23.80
2023-05-06T17:25:28.618Z,23.50
2023-05-06T17:28:00.307Z,23.30
2023-05-06T17:30:31.791Z,23.10
2023-05-06T17:33:03.473Z,22.80
2023-05-06T17:35:34.924Z,22.70
2023-05-06T17:38:06.655Z,22.60
2023-05-06T17:40:38.171Z,22.50
2023-05-06T17:43:09.764Z,22.40
2023-05-06T17:45:43.036Z,22.10
2023-05-06T17:48:15.798Z,21.90
2023-05-06T17:50:47.278Z,21.80
2023-05-06T17:53:18.752Z,21.50
2023-05-06T17:55:50.570Z,20.90
2023-05-06T17:58:22.126Z,20.10
2023-05-06T18:00:53.589Z,19.50
2023-05-06T18:03:25.332Z,18.90
2023-05-06T18:05:59.219Z,18.30
2023-05-06T18:08:30.869Z,17.40
2023-05-06T18:11:02.368Z,16.50
2023-05-06T18:13:36.750Z,15.90
2023-05-06T18:16:09.273Z,15.70
2023-05-06T18:18:40.798Z,15.70
2023-05-06T18:21:12.335Z,15.70
2023-05-06T18:23:44.064Z,15.60
2023-05-06T18:26:24.415Z,15.50
2023-05-06T18:28:48.908Z,15.60
2023-05-06T18:31:21.099Z,15.60
2023-05-06T18:33:52.584Z,15.70
2023-05-06T18:36:24.218Z,15.80
2023-05-06T18:38:56.017Z,15.90
2023-05-06T18:41:27.555Z,16.00
2023-05-06T18:43:59.059Z,16.00
2023-05-06T18:46:30.615Z,16.00
2023-05-06T18:49:02.116Z,15.80
2023-05-06T18:51:33.655Z,15.80
2023-05-06T18:54:05.176Z,15.70
2023-05-06T18:56:37.848Z,15.70
2023-05-06T18:59:10.752Z,15.60
2023-05-06T19:01:42.354Z,15.70
2023-05-06T19:04:14.104Z,15.80
2023-05-06T19:06:45.612Z,15.90
2023-05-06T19:09:17.723Z,15.90
2023-05-06T19:11:49.701Z,15.90
2023-05-06T19:14:22.457Z,15.70
2023-05-06T19:16:54.602Z,15.60
2023-05-06T19:19:26.142Z,15.50
2023-05-06T19:21:59.292Z,15.40
2023-05-06T19:24:32.193Z,15.30
2023-05-06T19:27:04.358Z,15.30
2023-05-06T19:29:35.818Z,15.20
2023-05-06T19:32:07.865Z,15.20
2023-05-06T19:34:39.328Z,15.20
2023-05-06T19:37:10.900Z,15.20
2023-05-06T19:39:42.622Z,15.20
2023-05-06T19:42:15.220Z,15.10
2023-05-06T19:44:47.809Z,15.10
2023-05-06T19:47:19.262Z,15.10
2023-05-06T19:49:51.918Z,15.00
2023-05-06T19:52:25.291Z,15.00
2023-05-06T19:54:56.680Z,14.90
2023-05-06T19:57:28.237Z,14.90
2023-05-06T19:59:59.658Z,14.90
2023-05-06T20:02:31.544Z,14.80
2023-05-06T20:05:03.060Z,14.70
2023-05-06T20:07:34.900Z,14.70
2023-05-06T20:10:09.458Z,14.70
2023-05-06T20:12:41.630Z,14.70
2023-05-06T20:15:13.580Z,14.70
2023-05-06T20:17:45.327Z,14.70
2023-05-06T20:20:17.751Z,14.70
2023-05-06T20:22:49.151Z,14.70
2023-05-06T20:25:21.862Z,14.70
2023-05-06T20:27:53.345Z,14.70
2023-05-06T20:30:24.949Z,14.80
2023-05-06T20:33:09.034Z,14.70
2023-05-06T20:35:41.217Z,14.60
2023-05-06T20:38:14.664Z,14.60
2023-05-06T20:40:46.139Z,14.50
2023-05-06T20:43:17.692Z,14.40
2023-05-06T20:45:52.154Z,14.30
2023-05-06T20:48:23.728Z,14.30
2023-05-06T20:50:57.031Z,14.20
2023-05-06T20:53:28.570Z,14.20
2023-05-06T20:56:00.263Z,14.20
2023-05-06T20:58:31.818Z,14.20
2023-05-06T21:01:04.298Z,14.10
2023-05-06T21:03:36.220Z,14.10
2023-05-06T21:06:07.971Z,14.20
2023-05-06T21:08:39.415Z,14.20
2023-05-06T21:11:11.011Z,14.10
2023-05-06T21:13:42.502Z,14.10
2023-05-06T21:16:14.025Z,14.10
2023-05-06T21:18:45.527Z,14.10
2023-05-06T21:21:17.116Z,14.10
2023-05-06T21:23:48.683Z,14.10
2023-05-06T21:26:21.512Z,14.00
2023-05-06T21:28:53.080Z,14.00
2023-05-06T21:31:26.589Z,14.10
2023-05-06T21:33:59.539Z,14.10
2023-05-06T21:36:31.106Z,14.10
2023-05-06T21:39:04.850Z,14.10
2023-05-06T21:41:36.637Z,14.10
2023-05-06T21:44:09.223Z,14.20
2023-05-06T21:46:41.041Z,14.20
2023-05-06T21:49:12.624Z,14.10
2023-05-06T21:51:44.146Z,14.10
2023-05-06T21:54:16.907Z,14.10
2023-05-06T21:56:48.416Z,14.00
2023-05-06T21:59:20.250Z,14.00
2023-05-06T22:01:51.860Z,14.00
2023-05-06T22:04:23.383Z,14.00
2023-05-06T22:06:55.068Z,14.00
2023-05-06T22:09:26.575Z,13.90
2023-05-06T22:11:58.552Z,13.90
2023-05-06T22:14:40.604Z,13.80
2023-05-06T22:17:07.291Z,13.80
2023-05-06T22:19:40.500Z,13.80
2023-05-06T22:22:13.406Z,13.80
2023-05-06T22:24:45.054Z,13.70
2023-05-06T22:27:18.173Z,13.70
2023-05-06T22:29:49.865Z,13.70
2023-05-06T22:32:21.702Z,13.70
2023-05-06T22:34:53.283Z,13.60
2023-05-06T22:37:25.040Z,13.70
2023-05-06T22:39:58.426Z,13.70
2023-05-06T22:42:30.051Z,13.60
2023-05-06T22:45:01.693Z,13.50
2023-05-06T22:47:33.148Z,13.50
2023-05-06T22:50:05.712Z,13.50
2023-05-06T22:52:37.915Z,13.50
2023-05-06T22:55:11.350Z,13.40
2023-05-06T22:57:43.122Z,13.30
2023-05-06T23:00:17.314Z,13.30
2023-05-06T23:02:48.904Z,13.30
2023-05-06T23:05:20.419Z,13.30
2023-05-06T23:07:51.908Z,13.20
2023-05-06T23:10:23.470Z,13.20
2023-05-06T23:12:55.477Z,13.20
2023-05-06T23:15:27.099Z,13.20
2023-05-06T23:17:58.680Z,13.20
2023-05-06T23:20:30.244Z,13.20
2023-05-06T23:23:01.726Z,13.20
2023-05-06T23:25:33.395Z,13.20
2023-05-06T23:28:04.784Z,13.20
2023-05-06T23:30:36.438Z,13.20
2023-05-06T23:33:09.145Z,13.20
2023-05-06T23:35:40.783Z,13.20
2023-05-06T23:38:12.267Z,13.20
2023-05-06T23:40:44.085Z,13.20
2023-05-06T23:43:15.477Z,13.20
2023-05-06T23:45:47.100Z,13.20
2023-05-06T23:48:18.570Z,13.20
2023-05-06T23:50:50.389Z,13.30
2023-05-06T23:53:22.072Z,13.30
2023-05-06T23:55:54.005Z,13.30
2023-05-06T23:58:25.831Z,13.30
